Time;durP1;ratioP1;P1;durP2;ratioP2;P2;SDS_P1;SDS_P2;PMS_P1;PMS_P2;Temp;Humidity;BMP_temperature;BMP_pressure;BME280_temperature;BME280_humidity;BME280_pressure;Samples;Min_cycle;Max_cycle;Signal;HPM_P1;HPM_P2
2020/10/04 01:31:22;;;;;;;;;;;;;;;;;;3721069;38;52656;-66
2020/10/04 01:36:02;;;;;;;;;;;;;;;;;;3728974;38;50664;-66
2020/10/04 01:38:28;;;;;;;;;;;;;;;;;;3730374;38;204;-64
2020/10/04 08:14:22;;;;;;;;;20.75;20.00;;;;;;;;3648108;37;47008;-60
2020/10/04 08:16:58;;;;;;;;;24.25;20.75;;;;;;;;3642369;37;72064;-60
2020/10/04 08:19:24;;;;;;;;;19.25;18.25;;;;;;;;3647863;37;43113;-58
2020/10/04 08:22:00;;;;;;;;;18.75;18.50;;;;;;;;3650265;38;43145;-59
2020/10/04 08:24:26;;;;;;;;;19.25;19.25;;;;;;;;3652450;37;43166;-58
2020/10/04 08:29:08;;;;;;;;;21.00;20.20;;;;;;;;3491985;37;4392602;-62
2020/10/04 08:31:48;;;;;;;;;21.00;17.25;;;;;;;;3585817;38;1994035;-63
2020/10/04 08:34:20;;;;;;;;;18.75;17.00;;;;;;;;3646321;37;40453;-62
2020/10/04 08:36:59;;;;;;;;;21.00;18.25;;;;;;;;3646198;37;43439;-62
2020/10/04 08:40:26;;;;;;;;;17.00;16.00;;;;;;;;3714587;38;165826;-62
2020/10/04 09:03:26;;;;;;;;;17.50;16.50;;;;;;;;3716658;38;70099;-25
2020/10/04 09:16:33;;;;;;;;;14.50;12.75;;;;;;;;3717518;38;70538;-58
2020/10/04 09:18:59;;;;;;;;;14.75;14.00;;;;;;;;3728523;38;20894;-57
2020/10/04 09:21:25;;;;;;;;;15.25;15.00;;;;;;;;3728297;37;20842;-57
2020/10/04 09:23:52;;;;;;;;;16.00;14.00;;;;;;;;3727458;37;20812;-58
2020/10/04 09:26:20;;;;;;;;;12.75;11.50;;;;;;;;3727271;37;20829;-57
2020/10/04 09:28:53;;;;;;;;;14.50;14.25;;;;;;;;3730955;37;67337;-57
2020/10/04 09:31:20;;;;;;;;;17.25;15.75;;;;;;;;3733742;38;20837;-58
2020/10/04 09:33:46;;;;;;;;;12.00;11.75;;;;;;;;3728388;37;20896;-57
2020/10/04 09:36:14;;;;;;;;;18.75;14.75;;;;;;;;3728371;38;20787;-58
2020/10/04 09:38:40;;;;;;;;;13.75;13.00;;;;;;;;3728371;38;18240;-57
2020/10/04 09:41:07;;;;;;;;;14.50;13.50;;;;;;;;3728458;37;20818;-61
2020/10/04 09:43:33;;;;;;;;;15.00;13.75;;;;;;;;3728496;37;20928;-61
2020/10/04 09:46:00;;;;;;;;;13.25;13.00;;;;;;;;3728073;37;20796;-58
2020/10/04 09:48:25;;;;;;;;;13.75;13.00;;;;;;;;3727387;37;18219;-59
2020/10/04 09:50:53;;;;;;;;;12.25;12.25;;;;;;;;3727993;37;20761;-60
2020/10/04 09:53:19;;;;;;;;;14.25;12.25;;;;;;;;3727653;38;18245;-58
2020/10/04 09:55:45;;;;;;;;;15.25;13.75;;;;;;;;3727157;37;20784;-59
2020/10/04 09:58:11;;;;;;;;;14.25;14.00;;;;;;;;3727708;37;18228;-56
2020/10/04 10:00:38;;;;;;;;;13.00;12.50;;;;;;;;3727881;37;20779;-57
2020/10/04 10:03:05;;;;;;;;;14.00;13.00;;;;;;;;3726741;38;20765;-59
2020/10/04 10:05:31;;;;;;;;;13.25;11.75;;;;;;;;3727284;38;18212;-58
2020/10/04 10:07:59;;;;;;;;;16.00;13.00;;;;;;;;3727385;38;20769;-57
2020/10/04 10:10:29;;;;;;;;;15.50;12.00;;;;;;;;3727618;37;20758;-56
2020/10/04 10:12:55;;;;;;;;;15.50;14.00;;;;;;;;3728123;38;18213;-58
2020/10/04 10:15:21;;;;;;;;;22.75;15.00;;;;;;;;3727574;38;21315;-58
2020/10/04 10:17:48;;;;;;;;;14.50;12.00;;;;;;;;3739497;37;21289;-56
2020/10/04 10:20:14;;;;;;;;;15.25;13.50;;;;;;;;3728882;37;21285;-58
2020/10/04 10:22:41;;;;;;;;;14.75;14.25;;;;;;;;3727388;38;21483;-55
2020/10/04 10:25:07;;;;;;;;;17.25;14.25;;;;;;;;3728063;38;21470;-57
2020/10/04 10:27:33;;;;;;;;;20.00;15.75;;;;;;;;3727276;38;18258;-57
2020/10/04 10:30:00;;;;;;;;;19.25;16.75;;;;;;;;3727376;37;21229;-56
2020/10/04 10:32:26;;;;;;;;;20.75;17.25;;;;;;;;3728021;37;21266;-57
2020/10/04 10:34:53;;;;;;;;;16.25;14.75;;;;;;;;3727554;38;18216;-56
2020/10/04 10:37:20;;;;;;;;;19.75;17.00;;;;;;;;3728264;37;18241;-57
2020/10/04 10:39:46;;;;;;;;;26.25;20.00;;;;;;;;3727992;38;21315;-58
2020/10/04 10:42:14;;;;;;;;;20.25;17.75;;;;;;;;3727671;37;21270;-58
2020/10/04 10:44:41;;;;;;;;;21.75;16.25;;;;;;;;3728435;37;18212;-57
2020/10/04 10:47:07;;;;;;;;;17.75;15.50;;;;;;;;3727472;38;21287;-57
2020/10/04 10:49:33;;;;;;;;;19.50;17.25;;;;;;;;3727805;37;21339;-55
2020/10/04 10:51:59;;;;;;;;;25.50;20.00;;;;;;;;3728360;38;21258;-57
2020/10/04 10:54:27;;;;;;;;;24.50;21.25;;;;;;;;3728069;37;18212;-56
2020/10/04 10:56:54;;;;;;;;;24.50;21.75;;;;;;;;3729726;38;21373;-57
2020/10/04 10:59:20;;;;;;;;;30.50;25.75;;;;;;;;3739584;37;21223;-56
2020/10/04 11:01:46;;;;;;;;;33.75;24.50;;;;;;;;3728327;37;21182;-55
2020/10/04 11:04:12;;;;;;;;;26.75;24.50;;;;;;;;3728380;38;18196;-56
2020/10/04 11:06:39;;;;;;;;;28.50;22.50;;;;;;;;3728038;37;18190;-59
2020/10/04 11:09:06;;;;;;;;;28.75;22.00;;;;;;;;3728179;37;21300;-57
2020/10/04 11:11:33;;;;;;;;;28.75;21.25;;;;;;;;3728328;37;21218;-56
2020/10/04 11:13:59;;;;;;;;;28.00;22.50;;;;;;;;3728373;38;18182;-58
2020/10/04 11:16:25;;;;;;;;;23.25;20.00;;;;;;;;3728065;37;21281;-58
2020/10/04 11:18:51;;;;;;;;;25.00;20.25;;;;;;;;3728306;38;18160;-56
2020/10/04 11:21:18;;;;;;;;;24.75;19.00;;;;;;;;3728274;38;18190;-56
2020/10/04 11:23:44;;;;;;;;;34.25;28.25;;;;;;;;3727734;38;18166;-56
2020/10/04 11:26:11;;;;;;;;;36.50;32.25;;;;;;;;3728360;38;21177;-58
2020/10/04 11:28:37;;;;;;;;;39.25;33.50;;;;;;;;3728141;37;21164;-58
2020/10/04 11:31:02;;;;;;;;;32.75;30.25;;;;;;;;3728326;38;18146;-60
2020/10/04 11:33:28;;;;;;;;;35.25;30.75;;;;;;;;3728325;38;18170;-58
2020/10/04 11:35:55;;;;;;;;;30.50;29.75;;;;;;;;3728336;38;18168;-57
2020/10/04 11:38:22;;;;;;;;;29.25;27.00;;;;;;;;3728033;38;18127;-57
2020/10/04 11:40:48;;;;;;;;;27.75;25.00;;;;;;;;3728393;38;21177;-57
2020/10/04 11:43:14;;;;;;;;;27.25;25.00;;;;;;;;3728211;38;21144;-57
2020/10/04 11:45:40;;;;;;;;;28.00;23.00;;;;;;;;3728322;37;18135;-57
2020/10/04 11:48:06;;;;;;;;;29.75;27.50;;;;;;;;3728293;38;18124;-57
2020/10/04 11:50:32;;;;;;;;;27.25;24.00;;;;;;;;3728269;38;18145;-58
2020/10/04 11:52:58;;;;;;;;;26.00;24.25;;;;;;;;3727258;38;21180;-57
2020/10/04 11:55:33;;;;;;;;;25.50;24.50;;;;;;;;3727483;38;18143;-54
2020/10/04 11:57:59;;;;;;;;;23.00;22.50;;;;;;;;3727063;37;18152;-57
2020/10/04 12:00:28;;;;;;;;;24.75;23.00;;;;;;;;3727519;38;21151;-58
2020/10/04 12:02:55;;;;;;;;;22.25;20.75;;;;;;;;3727922;37;21117;-58
2020/10/04 12:05:21;;;;;;;;;22.50;19.00;;;;;;;;3727421;38;21145;-58
2020/10/04 12:07:49;;;;;;;;;21.50;18.50;;;;;;;;3727919;38;21146;-57
2020/10/04 12:10:16;;;;;;;;;22.75;19.50;;;;;;;;3727386;37;21159;-59
2020/10/04 12:12:42;;;;;;;;;20.00;19.00;;;;;;;;3728203;37;21160;-59
2020/10/04 12:15:09;;;;;;;;;20.50;18.00;;;;;;;;3727897;37;21153;-59
2020/10/04 12:17:36;;;;;;;;;19.25;18.25;;;;;;;;3728266;38;21142;-59
2020/10/04 12:20:02;;;;;;;;;20.50;18.25;;;;;;;;3728085;37;21158;-59
2020/10/04 12:22:28;;;;;;;;;17.00;16.50;;;;;;;;3728009;38;21140;-59
2020/10/04 12:24:56;;;;;;;;;22.00;18.50;;;;;;;;3727843;37;21107;-57
2020/10/04 12:27:23;;;;;;;;;19.50;17.75;;;;;;;;3727958;38;21135;-57
2020/10/04 12:29:49;;;;;;;;;16.75;15.00;;;;;;;;3727290;38;21101;-58
2020/10/04 12:32:15;;;;;;;;;22.00;20.00;;;;;;;;3728108;37;21092;-57
2020/10/04 12:34:42;;;;;;;;;26.00;19.00;;;;;;;;3729012;37;18051;-58
2020/10/04 12:37:08;;;;;;;;;22.25;18.25;;;;;;;;3728475;37;18051;-58
2020/10/04 12:39:34;;;;;;;;;19.00;17.75;;;;;;;;3728123;38;21095;-58
2020/10/04 12:41:59;;;;;;;;;18.00;17.25;;;;;;;;3728235;37;18043;-57
2020/10/04 12:44:26;;;;;;;;;15.50;13.50;;;;;;;;3728204;38;18054;-59
2020/10/04 12:46:53;;;;;;;;;20.00;15.75;;;;;;;;3728105;38;18047;-58
2020/10/04 12:49:19;;;;;;;;;14.75;12.75;;;;;;;;3727569;37;21116;-58
2020/10/04 12:51:46;;;;;;;;;16.00;15.00;;;;;;;;3727817;37;21068;-58
2020/10/04 12:54:12;;;;;;;;;14.00;14.00;;;;;;;;3728221;37;18047;-58
2020/10/04 12:56:41;;;;;;;;;15.75;14.75;;;;;;;;3728235;38;21089;-59
2020/10/04 12:59:06;;;;;;;;;14.75;13.25;;;;;;;;3728239;38;18028;-59
2020/10/04 13:01:35;;;;;;;;;16.00;13.50;;;;;;;;3727923;37;21112;-58
2020/10/04 13:04:02;;;;;;;;;15.25;14.00;;;;;;;;3728200;38;21129;-59
2020/10/04 13:06:28;;;;;;;;;13.00;12.50;;;;;;;;3728260;37;21256;-58
2020/10/04 13:08:54;;;;;;;;;14.75;14.00;;;;;;;;3728210;38;21118;-58
2020/10/04 13:11:21;;;;;;;;;13.75;13.75;;;;;;;;3728227;38;21250;-59
2020/10/04 13:13:47;;;;;;;;;13.75;13.00;;;;;;;;3728485;37;18028;-58
2020/10/04 13:16:14;;;;;;;;;14.00;13.00;;;;;;;;3728349;37;21236;-59
2020/10/04 13:18:41;;;;;;;;;13.50;12.50;;;;;;;;3728490;38;18034;-58
2020/10/04 13:21:08;;;;;;;;;15.50;13.75;;;;;;;;3728228;37;21040;-58
2020/10/04 13:23:34;;;;;;;;;13.00;12.00;;;;;;;;3728312;37;21063;-58
2020/10/04 13:26:01;;;;;;;;;14.00;13.00;;;;;;;;3728346;37;21049;-57
2020/10/04 13:28:27;;;;;;;;;15.00;14.25;;;;;;;;3728118;38;21250;-58
2020/10/04 13:30:53;;;;;;;;;17.50;15.50;;;;;;;;3728194;37;21080;-58
2020/10/04 13:33:19;;;;;;;;;16.50;16.00;;;;;;;;3728468;37;21044;-59
2020/10/04 13:35:45;;;;;;;;;13.25;13.25;;;;;;;;3728490;37;17971;-59
2020/10/04 13:38:12;;;;;;;;;15.00;13.00;;;;;;;;3733301;38;17985;-58
2020/10/04 13:40:52;;;;;;;;;12.75;12.75;;;;;;;;3744534;37;21029;-57
2020/10/04 13:43:18;;;;;;;;;14.25;13.25;;;;;;;;3732416;37;21025;-60
2020/10/04 13:45:44;;;;;;;;;14.50;13.50;;;;;;;;3728195;37;21053;-58
2020/10/04 13:48:11;;;;;;;;;12.25;11.00;;;;;;;;3728234;38;17981;-58
2020/10/04 13:50:37;;;;;;;;;14.75;14.00;;;;;;;;3728212;38;20933;-58
2020/10/04 13:53:03;;;;;;;;;13.50;12.50;;;;;;;;3728227;38;17961;-58
2020/10/04 13:55:29;;;;;;;;;13.50;12.25;;;;;;;;3728307;37;17953;-58
2020/10/04 13:57:55;;;;;;;;;16.25;14.00;;;;;;;;3728368;38;21049;-58
2020/10/04 14:00:21;;;;;;;;;13.00;13.00;;;;;;;;3728315;38;21038;-58
2020/10/04 14:02:47;;;;;;;;;15.25;14.25;;;;;;;;3724900;37;17972;-57
2020/10/04 14:05:18;;;;;;;;;18.00;15.75;;;;;;;;3725566;37;17940;-57
2020/10/04 14:07:44;;;;;;;;;14.75;13.75;;;;;;;;3724882;37;21023;-58
2020/10/04 14:10:11;;;;;;;;;14.00;14.00;;;;;;;;3725316;37;21030;-58
2020/10/04 14:12:38;;;;;;;;;14.25;13.25;;;;;;;;3725407;37;21093;-57
2020/10/04 14:15:05;;;;;;;;;14.50;14.00;;;;;;;;3724977;37;20988;-58
2020/10/04 14:17:31;;;;;;;;;15.50;14.75;;;;;;;;3725548;38;20973;-58
2020/10/04 14:19:57;;;;;;;;;12.75;12.75;;;;;;;;3725440;38;20963;-58
2020/10/04 14:22:24;;;;;;;;;15.00;14.00;;;;;;;;3725248;38;20965;-58
2020/10/04 14:24:51;;;;;;;;;16.25;14.00;;;;;;;;3724832;38;20964;-58
2020/10/04 14:27:18;;;;;;;;;12.00;11.25;;;;;;;;3725223;38;17916;-58
2020/10/04 14:29:50;;;;;;;;;13.50;12.25;;;;;;;;3725149;38;20954;-58
2020/10/04 14:32:17;;;;;;;;;12.75;11.00;;;;;;;;3725348;38;20979;-61
2020/10/04 14:34:44;;;;;;;;;14.25;13.00;;;;;;;;3725265;37;20947;-61
2020/10/04 14:37:11;;;;;;;;;13.00;13.00;;;;;;;;3724873;37;20985;-58
2020/10/04 14:39:38;;;;;;;;;12.25;11.50;;;;;;;;3725341;37;21001;-58
2020/10/04 14:42:04;;;;;;;;;13.50;11.00;;;;;;;;3725412;38;21100;-58
2020/10/04 14:44:32;;;;;;;;;12.50;11.50;;;;;;;;3725312;37;20935;-60
2020/10/04 14:47:02;;;;;;;;;13.75;12.75;;;;;;;;3725405;38;21143;-58
2020/10/04 14:49:28;;;;;;;;;11.25;11.00;;;;;;;;3725453;38;20937;-58
2020/10/04 14:51:55;;;;;;;;;14.00;12.75;;;;;;;;3725496;37;21147;-58
2020/10/04 14:54:22;;;;;;;;;9.25;9.25;;;;;;;;3725539;37;17902;-58
2020/10/04 14:56:49;;;;;;;;;10.75;10.25;;;;;;;;3725483;37;20906;-58
2020/10/04 14:59:15;;;;;;;;;12.25;11.75;;;;;;;;3724977;38;17894;-59
2020/10/04 15:01:43;;;;;;;;;10.50;10.00;;;;;;;;3725351;37;21141;-57
2020/10/04 15:04:09;;;;;;;;;13.25;12.00;;;;;;;;3725431;38;20900;-57
2020/10/04 15:06:34;;;;;;;;;11.00;10.75;;;;;;;;3725549;37;21100;-58
2020/10/04 15:09:01;;;;;;;;;12.00;11.00;;;;;;;;3725400;37;17864;-57
2020/10/04 15:11:27;;;;;;;;;13.50;12.00;;;;;;;;3725494;38;17854;-58
2020/10/04 15:13:54;;;;;;;;;14.50;11.75;;;;;;;;3725705;38;20916;-59
2020/10/04 15:16:21;;;;;;;;;10.50;10.00;;;;;;;;3725828;37;20467;-57
2020/10/04 15:18:48;;;;;;;;;12.00;12.00;;;;;;;;3725690;37;20409;-58
2020/10/04 15:21:14;;;;;;;;;11.75;11.00;;;;;;;;3725406;38;20465;-56
2020/10/04 15:23:40;;;;;;;;;19.00;14.00;;;;;;;;3725359;37;20402;-60
2020/10/04 15:26:06;;;;;;;;;11.50;10.00;;;;;;;;3725306;37;17785;-57
2020/10/04 15:28:33;;;;;;;;;13.25;11.75;;;;;;;;3725748;37;17751;-57
2020/10/04 15:30:59;;;;;;;;;13.50;13.00;;;;;;;;3725560;37;20427;-57
2020/10/04 15:33:25;;;;;;;;;15.50;12.75;;;;;;;;3725619;37;17778;-57
2020/10/04 15:35:52;;;;;;;;;15.75;14.50;;;;;;;;3725490;38;20446;-63
2020/10/04 15:38:18;;;;;;;;;14.00;12.00;;;;;;;;3725651;37;17758;-58
2020/10/04 15:40:44;;;;;;;;;14.00;11.25;;;;;;;;3725539;38;20321;-56
2020/10/04 15:43:11;;;;;;;;;16.50;14.00;;;;;;;;3725543;38;20335;-58
2020/10/04 15:45:37;;;;;;;;;15.75;13.00;;;;;;;;3725544;38;20325;-60
2020/10/04 15:48:04;;;;;;;;;16.00;13.50;;;;;;;;3725692;38;17742;-56
2020/10/04 15:50:31;;;;;;;;;16.50;13.00;;;;;;;;3725722;37;20319;-60
2020/10/04 15:52:57;;;;;;;;;14.25;12.75;;;;;;;;3725767;37;20318;-57
2020/10/04 15:55:23;;;;;;;;;16.75;14.00;;;;;;;;3725695;37;17741;-57
2020/10/04 15:57:48;;;;;;;;;17.25;15.00;;;;;;;;3725625;37;17722;-57
2020/10/04 16:00:15;;;;;;;;;20.75;16.50;;;;;;;;3725686;38;17728;-56
2020/10/04 16:02:40;;;;;;;;;19.75;17.75;;;;;;;;3725728;37;17738;-58
2020/10/04 16:05:07;;;;;;;;;21.00;16.50;;;;;;;;3725700;38;20364;-57
2020/10/04 16:07:33;;;;;;;;;18.00;16.00;;;;;;;;3725766;37;17701;-56
2020/10/04 16:10:00;;;;;;;;;21.75;19.00;;;;;;;;3725681;37;20292;-59
2020/10/04 16:12:27;;;;;;;;;20.50;17.00;;;;;;;;3725700;38;20279;-58
2020/10/04 16:14:53;;;;;;;;;18.75;17.00;;;;;;;;3725340;38;20825;-59
2020/10/04 16:17:19;;;;;;;;;21.00;17.00;;;;;;;;3725441;38;17790;-58
2020/10/04 16:19:45;;;;;;;;;25.75;19.00;;;;;;;;3725455;37;17796;-59
2020/10/04 16:22:13;;;;;;;;;18.00;17.00;;;;;;;;3725549;37;17777;-58
2020/10/04 16:24:39;;;;;;;;;20.50;18.50;;;;;;;;3725192;38;20829;-57
2020/10/04 16:27:05;;;;;;;;;19.00;17.50;;;;;;;;3725098;38;20852;-57
2020/10/04 16:29:31;;;;;;;;;18.50;15.25;;;;;;;;3725442;37;17746;-58
2020/10/04 16:31:58;;;;;;;;;21.50;17.75;;;;;;;;3725333;38;20813;-57
2020/10/04 16:34:24;;;;;;;;;21.00;19.00;;;;;;;;3725518;37;20820;-58
2020/10/04 16:36:53;;;;;;;;;27.25;24.00;;;;;;;;3734553;37;20816;-56
2020/10/04 16:39:19;;;;;;;;;24.25;20.75;;;;;;;;3738841;38;17737;-57
2020/10/04 16:41:45;;;;;;;;;24.25;21.25;;;;;;;;3726105;38;20781;-59
2020/10/04 16:44:12;;;;;;;;;24.00;21.00;;;;;;;;3725438;38;20830;-59
2020/10/04 16:46:39;;;;;;;;;21.00;18.75;;;;;;;;3725629;38;17723;-57
2020/10/04 16:49:07;;;;;;;;;23.00;19.25;;;;;;;;3725451;37;20783;-58
2020/10/04 16:51:33;;;;;;;;;19.25;17.50;;;;;;;;3725133;38;20755;-58
2020/10/04 16:53:59;;;;;;;;;21.50;19.00;;;;;;;;3725467;38;20779;-57
2020/10/04 16:56:25;;;;;;;;;21.25;19.75;;;;;;;;3725524;37;20762;-57
2020/10/04 16:58:51;;;;;;;;;23.00;22.00;;;;;;;;3725493;37;17711;-57
2020/10/04 17:01:17;;;;;;;;;19.00;18.00;;;;;;;;3725537;37;20750;-58
2020/10/04 17:03:46;;;;;;;;;20.00;18.50;;;;;;;;3725400;37;17734;-59
2020/10/04 17:06:12;;;;;;;;;20.75;18.25;;;;;;;;3724945;37;20738;-58
2020/10/04 17:08:38;;;;;;;;;18.50;18.50;;;;;;;;3725388;38;20759;-57
2020/10/04 17:11:04;;;;;;;;;20.00;16.50;;;;;;;;3725585;37;17720;-58
2020/10/04 17:13:31;;;;;;;;;19.00;17.25;;;;;;;;3725170;38;20792;-58
2020/10/04 17:15:58;;;;;;;;;20.75;18.75;;;;;;;;3724702;37;20184;-57
2020/10/04 17:18:25;;;;;;;;;17.00;15.75;;;;;;;;3724945;37;20228;-59
2020/10/04 17:20:52;;;;;;;;;18.50;14.25;;;;;;;;3725550;38;20219;-60
2020/10/04 17:23:18;;;;;;;;;17.75;17.25;;;;;;;;3724939;37;20193;-58
2020/10/04 17:25:45;;;;;;;;;20.25;16.50;;;;;;;;3724950;37;17621;-58
2020/10/04 17:28:12;;;;;;;;;20.25;15.50;;;;;;;;3725502;37;17632;-57
2020/10/04 17:30:39;;;;;;;;;17.00;13.75;;;;;;;;3725470;37;20200;-56
2020/10/04 17:33:05;;;;;;;;;15.50;14.75;;;;;;;;3725603;37;20184;-56
2020/10/04 17:35:34;;;;;;;;;17.25;16.50;;;;;;;;3725594;38;20185;-57
2020/10/04 17:37:59;;;;;;;;;16.50;16.00;;;;;;;;3725561;38;20178;-56
2020/10/04 17:40:27;;;;;;;;;19.25;16.75;;;;;;;;3725626;37;20165;-56
2020/10/04 17:42:53;;;;;;;;;19.25;15.00;;;;;;;;3725699;37;17614;-57
2020/10/04 17:45:18;;;;;;;;;22.00;16.25;;;;;;;;3725681;38;20159;-58
2020/10/04 17:47:45;;;;;;;;;15.00;14.25;;;;;;;;3725683;37;17604;-56
2020/10/04 17:50:11;;;;;;;;;15.00;12.75;;;;;;;;3725794;37;17569;-57
2020/10/04 17:52:37;;;;;;;;;14.75;12.00;;;;;;;;3725800;37;20161;-56
2020/10/04 17:55:04;;;;;;;;;18.00;14.00;;;;;;;;3725956;37;20152;-57
2020/10/04 17:57:31;;;;;;;;;27.50;22.25;;;;;;;;3725676;38;20176;-57
2020/10/04 17:59:57;;;;;;;;;21.00;20.00;;;;;;;;3725913;37;17587;-57
2020/10/04 18:02:25;;;;;;;;;19.25;17.50;;;;;;;;3725731;38;21147;-56
2020/10/04 18:04:55;;;;;;;;;23.25;16.75;;;;;;;;3725580;37;21130;-57
2020/10/04 18:07:23;;;;;;;;;22.00;20.00;;;;;;;;3725601;38;21128;-57
2020/10/04 18:09:50;;;;;;;;;22.25;20.25;;;;;;;;3725474;38;21134;-57
2020/10/04 18:12:17;;;;;;;;;21.50;18.25;;;;;;;;3725489;38;21150;-57
2020/10/04 18:14:44;;;;;;;;;19.50;16.75;;;;;;;;3725308;38;21141;-57
2020/10/04 18:17:11;;;;;;;;;21.75;19.00;;;;;;;;3725418;37;21673;-59
2020/10/04 18:19:39;;;;;;;;;22.75;17.75;;;;;;;;3725294;37;21672;-57
2020/10/04 18:22:06;;;;;;;;;24.50;19.00;;;;;;;;3725391;37;21650;-56
2020/10/04 18:24:32;;;;;;;;;15.75;15.50;;;;;;;;3725597;37;21702;-60
2020/10/04 18:26:59;;;;;;;;;13.00;13.00;;;;;;;;3725587;38;18592;-58
2020/10/04 18:29:26;;;;;;;;;21.25;17.75;;;;;;;;3725398;37;18591;-57
2020/10/04 18:31:54;;;;;;;;;18.00;15.00;;;;;;;;3725494;38;21640;-57
2020/10/04 18:34:20;;;;;;;;;19.75;17.00;;;;;;;;3725017;37;21663;-56
2020/10/04 18:36:52;;;;;;;;;24.50;17.50;;;;;;;;3733358;37;21659;-57
2020/10/04 18:39:19;;;;;;;;;23.25;18.75;;;;;;;;3728386;37;21682;-56
2020/10/04 18:41:45;;;;;;;;;29.50;23.50;;;;;;;;3725466;37;21619;-57
2020/10/04 18:44:12;;;;;;;;;33.50;23.00;;;;;;;;3725396;38;21582;-57
2020/10/04 18:46:39;;;;;;;;;37.25;29.00;;;;;;;;3725091;37;18593;-56
2020/10/04 18:49:06;;;;;;;;;27.50;25.25;;;;;;;;3725282;38;21628;-58
2020/10/04 18:51:33;;;;;;;;;31.75;26.25;;;;;;;;3725290;37;21585;-61
2020/10/04 18:54:00;;;;;;;;;26.00;24.00;;;;;;;;3725590;38;21581;-57
2020/10/04 18:56:26;;;;;;;;;31.00;26.75;;;;;;;;3725346;37;21593;-56
2020/10/04 18:58:52;;;;;;;;;31.75;27.00;;;;;;;;3725313;37;21556;-57
2020/10/04 19:01:20;;;;;;;;;28.75;25.00;;;;;;;;3725184;37;21560;-56
2020/10/04 19:03:48;;;;;;;;;34.00;26.50;;;;;;;;3725366;37;21608;-57
2020/10/04 19:06:15;;;;;;;;;30.75;25.75;;;;;;;;3724963;38;21566;-57
2020/10/04 19:08:41;;;;;;;;;26.25;21.25;;;;;;;;3724797;37;21610;-57
2020/10/04 19:11:12;;;;;;;;;28.75;23.50;;;;;;;;3725326;38;21590;-57
2020/10/04 19:13:38;;;;;;;;;25.75;24.00;;;;;;;;3725551;37;21311;-58
2020/10/04 19:16:04;;;;;;;;;30.25;25.25;;;;;;;;3725349;37;21167;-60
2020/10/04 19:18:31;;;;;;;;;29.25;22.50;;;;;;;;3725463;37;18525;-57
2020/10/04 19:20:58;;;;;;;;;23.50;20.75;;;;;;;;3725434;38;18526;-57
2020/10/04 19:23:24;;;;;;;;;25.00;22.00;;;;;;;;3725362;38;21591;-56
2020/10/04 19:25:50;;;;;;;;;22.50;18.50;;;;;;;;3725267;38;21605;-59
2020/10/04 19:28:17;;;;;;;;;22.75;21.00;;;;;;;;3725341;37;21600;-57
2020/10/04 19:30:44;;;;;;;;;25.50;20.50;;;;;;;;3725149;37;21585;-56
2020/10/04 19:33:10;;;;;;;;;24.75;19.25;;;;;;;;3725407;37;21603;-56
2020/10/04 19:35:36;;;;;;;;;26.25;21.25;;;;;;;;3725279;37;21580;-55
2020/10/04 19:38:02;;;;;;;;;23.00;20.25;;;;;;;;3725463;38;18515;-60
2020/10/04 19:40:30;;;;;;;;;20.50;18.00;;;;;;;;3725304;38;21607;-57
2020/10/04 19:42:56;;;;;;;;;25.00;18.00;;;;;;;;3725242;37;21548;-59
2020/10/04 19:45:22;;;;;;;;;21.00;19.00;;;;;;;;3725277;37;21556;-56
2020/10/04 19:47:50;;;;;;;;;20.75;17.25;;;;;;;;3725370;38;18475;-61
2020/10/04 19:50:16;;;;;;;;;20.25;19.25;;;;;;;;3725279;37;21532;-57
2020/10/04 19:52:45;;;;;;;;;23.25;19.00;;;;;;;;3725325;38;21535;-57
2020/10/04 19:55:11;;;;;;;;;22.50;19.00;;;;;;;;3725325;37;21548;-57
2020/10/04 19:57:38;;;;;;;;;18.50;15.50;;;;;;;;3725363;38;21525;-57
2020/10/04 20:00:04;;;;;;;;;19.50;17.25;;;;;;;;3724993;37;21568;-58
2020/10/04 20:02:32;;;;;;;;;19.00;15.00;;;;;;;;3725284;38;21550;-58
2020/10/04 20:04:59;;;;;;;;;20.00;16.25;;;;;;;;3724800;38;21540;-58
2020/10/04 20:07:29;;;;;;;;;21.75;17.50;;;;;;;;3725464;37;21505;-60
2020/10/04 20:09:55;;;;;;;;;19.00;14.00;;;;;;;;3725353;37;21524;-58
2020/10/04 20:12:21;;;;;;;;;18.25;14.50;;;;;;;;3725587;37;18479;-57
2020/10/04 20:14:47;;;;;;;;;18.75;15.75;;;;;;;;3725417;37;21514;-57
2020/10/04 20:17:14;;;;;;;;;19.00;16.00;;;;;;;;3725514;37;18446;-57
2020/10/04 20:19:41;;;;;;;;;18.00;15.50;;;;;;;;3725104;37;21497;-56
2020/10/04 20:22:08;;;;;;;;;17.75;14.75;;;;;;;;3724813;37;21520;-58
2020/10/04 20:24:35;;;;;;;;;20.50;15.75;;;;;;;;3724842;38;21483;-57
2020/10/04 20:27:02;;;;;;;;;17.75;15.75;;;;;;;;3725307;37;21520;-57
2020/10/04 20:29:28;;;;;;;;;18.50;15.25;;;;;;;;3725528;37;21535;-58
2020/10/04 20:31:55;;;;;;;;;24.50;21.75;;;;;;;;3733246;37;18451;-58
2020/10/04 20:34:21;;;;;;;;;18.25;16.00;;;;;;;;3731619;38;21523;-57
2020/10/04 20:36:47;;;;;;;;;21.75;18.00;;;;;;;;3725643;37;21484;-58
2020/10/04 20:39:15;;;;;;;;;21.00;15.75;;;;;;;;3725642;37;21542;-56
2020/10/04 20:41:43;;;;;;;;;18.00;16.25;;;;;;;;3725689;38;21517;-57
2020/10/04 20:44:09;;;;;;;;;17.00;15.00;;;;;;;;3725378;38;21473;-57
2020/10/04 20:46:39;;;;;;;;;20.00;15.25;;;;;;;;3725256;38;21453;-58
2020/10/04 20:49:06;;;;;;;;;17.50;15.00;;;;;;;;3725209;38;21454;-58
2020/10/04 20:51:32;;;;;;;;;13.25;12.00;;;;;;;;3725181;38;21448;-58
2020/10/04 20:53:59;;;;;;;;;16.75;15.00;;;;;;;;3725322;37;21485;-57
2020/10/04 20:56:26;;;;;;;;;16.50;15.00;;;;;;;;3725320;37;21440;-57
2020/10/04 20:58:53;;;;;;;;;20.25;16.25;;;;;;;;3725164;38;21447;-57
2020/10/04 21:01:20;;;;;;;;;14.25;12.50;;;;;;;;3725249;38;21445;-57
2020/10/04 21:03:46;;;;;;;;;21.75;18.75;;;;;;;;3725376;38;21444;-57
2020/10/04 21:06:12;;;;;;;;;15.50;14.00;;;;;;;;3725275;37;21443;-57
2020/10/04 21:08:39;;;;;;;;;17.25;14.00;;;;;;;;3725372;37;18378;-57
2020/10/04 21:11:05;;;;;;;;;16.25;15.25;;;;;;;;3725332;37;18396;-57
2020/10/04 21:13:32;;;;;;;;;15.75;13.50;;;;;;;;3725336;37;21638;-57
2020/10/04 21:16:00;;;;;;;;;15.50;12.75;;;;;;;;3725402;38;21600;-57
2020/10/04 21:18:26;;;;;;;;;15.75;14.00;;;;;;;;3725396;38;21562;-57
2020/10/04 21:20:53;;;;;;;;;17.75;13.75;;;;;;;;3725593;38;18383;-57
2020/10/04 21:23:19;;;;;;;;;12.50;11.50;;;;;;;;3725517;37;21620;-57
2020/10/04 21:25:45;;;;;;;;;12.25;12.25;;;;;;;;3725487;37;18368;-57
2020/10/04 21:28:12;;;;;;;;;15.00;12.00;;;;;;;;3725404;37;21567;-57
2020/10/04 21:30:38;;;;;;;;;12.75;11.50;;;;;;;;3725200;37;21394;-57
2020/10/04 21:33:05;;;;;;;;;14.50;12.50;;;;;;;;3725363;37;18344;-57
2020/10/04 21:35:31;;;;;;;;;15.50;12.50;;;;;;;;3725480;38;18333;-57
2020/10/04 21:37:58;;;;;;;;;14.00;11.25;;;;;;;;3725280;37;21413;-57
2020/10/04 21:40:24;;;;;;;;;14.00;13.00;;;;;;;;3725183;37;21361;-57
2020/10/04 21:42:50;;;;;;;;;11.75;10.50;;;;;;;;3725312;38;21585;-57
2020/10/04 21:45:16;;;;;;;;;13.25;13.00;;;;;;;;3725370;37;21547;-58
2020/10/04 21:47:42;;;;;;;;;12.00;11.75;;;;;;;;3725443;38;18329;-57
2020/10/04 21:50:09;;;;;;;;;13.00;12.50;;;;;;;;3725350;37;18330;-57
2020/10/04 21:52:35;;;;;;;;;16.25;13.50;;;;;;;;3725253;37;21565;-57
2020/10/04 21:55:01;;;;;;;;;14.50;11.25;;;;;;;;3725362;37;21514;-57
2020/10/04 21:57:28;;;;;;;;;11.00;10.25;;;;;;;;3725457;38;18313;-58
2020/10/04 21:59:54;;;;;;;;;11.50;11.25;;;;;;;;3725457;38;21628;-58
2020/10/04 22:02:21;;;;;;;;;11.50;10.50;;;;;;;;3725408;38;21505;-57
2020/10/04 22:04:47;;;;;;;;;13.00;11.00;;;;;;;;3725091;37;18326;-59
2020/10/04 22:07:15;;;;;;;;;14.00;12.75;;;;;;;;3725531;37;21513;-58
2020/10/04 22:09:43;;;;;;;;;11.50;11.25;;;;;;;;3725279;37;21504;-57
2020/10/04 22:12:09;;;;;;;;;15.00;12.00;;;;;;;;3725359;38;21507;-57
2020/10/04 22:14:37;;;;;;;;;13.00;12.00;;;;;;;;3725309;37;21495;-57
2020/10/04 22:17:08;;;;;;;;;11.50;11.25;;;;;;;;3725427;37;21522;-58
2020/10/04 22:19:34;;;;;;;;;13.00;11.75;;;;;;;;3725317;37;21482;-58
2020/10/04 22:22:00;;;;;;;;;13.75;11.50;;;;;;;;3725337;38;21474;-58
2020/10/04 22:24:27;;;;;;;;;12.75;11.00;;;;;;;;3725549;37;18292;-59
2020/10/04 22:26:55;;;;;;;;;9.75;9.75;;;;;;;;3725462;37;21522;-58
2020/10/04 22:29:21;;;;;;;;;12.00;11.50;;;;;;;;3725341;37;21495;-58
2020/10/04 22:31:48;;;;;;;;;13.25;10.25;;;;;;;;3726031;37;21479;-55
2020/10/04 22:34:23;;;;;;;;;10.50;9.75;;;;;;;;3740477;37;18268;-62
2020/10/04 22:36:51;;;;;;;;;11.00;10.75;;;;;;;;3726735;38;21489;-61
2020/10/04 22:39:17;;;;;;;;;7.50;6.00;;;;;;;;3725400;37;21465;-61
2020/10/04 22:41:51;;;;;;;;;11.50;9.75;;;;;;;;3725494;37;18263;-61
2020/10/04 22:44:17;;;;;;;;;9.00;8.00;;;;;;;;3725465;38;21451;-60
2020/10/04 22:46:44;;;;;;;;;10.50;10.50;;;;;;;;3725420;38;21203;-59
2020/10/04 22:49:10;;;;;;;;;12.00;10.50;;;;;;;;3725432;38;21522;-58
2020/10/04 22:51:36;;;;;;;;;14.25;10.25;;;;;;;;3725462;37;21469;-59
2020/10/04 22:54:02;;;;;;;;;9.00;9.00;;;;;;;;3725499;37;18249;-58
2020/10/04 22:56:30;;;;;;;;;9.75;9.75;;;;;;;;3725530;38;18247;-57